sensor_id;sensor_type;location;lat;lon;timestamp;P1;durP1;ratioP1;P2;durP2;ratioP2
64986;SDS011;67903;52.108;9.358;2024-02-26T00:00:25;6.28;;;5.60;;
64986;SDS011;67903;52.108;9.358;2024-02-26T00:03:11;6.78;;;5.70;;
64986;SDS011;67903;52.108;9.358;2024-02-26T00:05:56;6.60;;;5.80;;
64986;SDS011;67903;52.108;9.358;2024-02-26T00:08:42;6.20;;;5.60;;
64986;SDS011;67903;52.108;9.358;2024-02-26T00:11:27;6.38;;;5.43;;
64986;SDS011;67903;52.108;9.358;2024-02-26T00:14:13;6.72;;;5.30;;
64986;SDS011;67903;52.108;9.358;2024-02-26T00:16:59;6.57;;;5.30;;
64986;SDS011;67903;52.108;9.358;2024-02-26T00:19:45;6.18;;;5.18;;
64986;SDS011;67903;52.108;9.358;2024-02-26T00:22:31;6.25;;;5.30;;
64986;SDS011;67903;52.108;9.358;2024-02-26T00:25:16;6.05;;;5.45;;
64986;SDS011;67903;52.108;9.358;2024-02-26T00:28:02;7.00;;;5.28;;
64986;SDS011;67903;52.108;9.358;2024-02-26T00:30:48;6.35;;;5.57;;
64986;SDS011;67903;52.108;9.358;2024-02-26T00:33:33;8.77;;;5.28;;
64986;SDS011;67903;52.108;9.358;2024-02-26T00:36:19;6.45;;;5.00;;
64986;SDS011;67903;52.108;9.358;2024-02-26T00:39:05;5.90;;;4.95;;
64986;SDS011;67903;52.108;9.358;2024-02-26T00:41:51;5.82;;;4.78;;
64986;SDS011;67903;52.108;9.358;2024-02-26T00:44:36;7.22;;;4.93;;
64986;SDS011;67903;52.108;9.358;2024-02-26T00:47:22;7.30;;;4.97;;
64986;SDS011;67903;52.108;9.358;2024-02-26T00:50:07;5.78;;;4.95;;
64986;SDS011;67903;52.108;9.358;2024-02-26T00:52:53;6.32;;;4.75;;
64986;SDS011;67903;52.108;9.358;2024-02-26T00:55:39;7.22;;;5.43;;
64986;SDS011;67903;52.108;9.358;2024-02-26T00:58:25;5.07;;;4.57;;
64986;SDS011;67903;52.108;9.358;2024-02-26T01:01:11;7.07;;;4.50;;
64986;SDS011;67903;52.108;9.358;2024-02-26T01:03:56;5.50;;;4.72;;
64986;SDS011;67903;52.108;9.358;2024-02-26T01:06:42;6.00;;;4.82;;
64986;SDS011;67903;52.108;9.358;2024-02-26T01:09:28;5.60;;;4.88;;
64986;SDS011;67903;52.108;9.358;2024-02-26T01:12:14;6.13;;;5.07;;
64986;SDS011;67903;52.108;9.358;2024-02-26T01:15:01;7.47;;;5.50;;
64986;SDS011;67903;52.108;9.358;2024-02-26T01:17:48;5.95;;;5.32;;
64986;SDS011;67903;52.108;9.358;2024-02-26T01:20:34;5.00;;;4.50;;
64986;SDS011;67903;52.108;9.358;2024-02-26T01:23:20;7.20;;;5.15;;
64986;SDS011;67903;52.108;9.358;2024-02-26T01:26:05;5.38;;;4.88;;
64986;SDS011;67903;52.108;9.358;2024-02-26T01:28:51;6.82;;;5.28;;
64986;SDS011;67903;52.108;9.358;2024-02-26T01:31:37;7.35;;;5.20;;
64986;SDS011;67903;52.108;9.358;2024-02-26T01:34:23;7.07;;;5.53;;
64986;SDS011;67903;52.108;9.358;2024-02-26T01:37:09;8.25;;;5.38;;
64986;SDS011;67903;52.108;9.358;2024-02-26T01:39:54;7.50;;;5.25;;
64986;SDS011;67903;52.108;9.358;2024-02-26T01:42:40;6.40;;;5.50;;
64986;SDS011;67903;52.108;9.358;2024-02-26T01:45:26;8.13;;;5.47;;
64986;SDS011;67903;52.108;9.358;2024-02-26T01:48:11;7.05;;;5.43;;
64986;SDS011;67903;52.108;9.358;2024-02-26T01:50:58;7.38;;;5.20;;
64986;SDS011;67903;52.108;9.358;2024-02-26T01:53:43;7.05;;;5.50;;
64986;SDS011;67903;52.108;9.358;2024-02-26T01:56:29;5.78;;;5.25;;
64986;SDS011;67903;52.108;9.358;2024-02-26T01:59:16;5.85;;;5.25;;
64986;SDS011;67903;52.108;9.358;2024-02-26T02:02:03;6.25;;;5.03;;
64986;SDS011;67903;52.108;9.358;2024-02-26T02:04:52;5.68;;;4.88;;
64986;SDS011;67903;52.108;9.358;2024-02-26T02:07:37;6.20;;;4.70;;
64986;SDS011;67903;52.108;9.358;2024-02-26T02:10:23;7.13;;;5.13;;
64986;SDS011;67903;52.108;9.358;2024-02-26T02:13:11;5.88;;;5.05;;
64986;SDS011;67903;52.108;9.358;2024-02-26T02:15:56;6.85;;;5.03;;
64986;SDS011;67903;52.108;9.358;2024-02-26T02:18:42;6.45;;;4.60;;
64986;SDS011;67903;52.108;9.358;2024-02-26T02:21:27;5.25;;;4.18;;
64986;SDS011;67903;52.108;9.358;2024-02-26T02:24:13;5.75;;;4.68;;
64986;SDS011;67903;52.108;9.358;2024-02-26T02:26:58;6.22;;;4.95;;
64986;SDS011;67903;52.108;9.358;2024-02-26T02:29:44;7.00;;;5.40;;
64986;SDS011;67903;52.108;9.358;2024-02-26T02:32:30;7.72;;;5.22;;
64986;SDS011;67903;52.108;9.358;2024-02-26T02:35:16;6.07;;;5.03;;
64986;SDS011;67903;52.108;9.358;2024-02-26T02:38:02;6.22;;;4.90;;
64986;SDS011;67903;52.108;9.358;2024-02-26T02:40:48;4.90;;;4.40;;
64986;SDS011;67903;52.108;9.358;2024-02-26T02:43:33;5.18;;;4.55;;
64986;SDS011;67903;52.108;9.358;2024-02-26T02:46:19;5.40;;;4.30;;
64986;SDS011;67903;52.108;9.358;2024-02-26T02:49:08;4.20;;;3.80;;
64986;SDS011;67903;52.108;9.358;2024-02-26T02:51:55;4.25;;;3.83;;
64986;SDS011;67903;52.108;9.358;2024-02-26T02:54:42;4.25;;;3.85;;
64986;SDS011;67903;52.108;9.358;2024-02-26T02:57:27;5.18;;;3.95;;
64986;SDS011;67903;52.108;9.358;2024-02-26T03:00:13;4.38;;;3.85;;
64986;SDS011;67903;52.108;9.358;2024-02-26T03:02:59;4.25;;;3.55;;
64986;SDS011;67903;52.108;9.358;2024-02-26T03:05:44;4.50;;;3.50;;
64986;SDS011;67903;52.108;9.358;2024-02-26T03:08:30;4.38;;;3.40;;
64986;SDS011;67903;52.108;9.358;2024-02-26T03:11:15;3.95;;;3.38;;
64986;SDS011;67903;52.108;9.358;2024-02-26T03:14:01;4.05;;;3.65;;
64986;SDS011;67903;52.108;9.358;2024-02-26T03:16:47;4.07;;;3.22;;
64986;SDS011;67903;52.108;9.358;2024-02-26T03:19:32;3.28;;;2.83;;
64986;SDS011;67903;52.108;9.358;2024-02-26T03:22:18;3.53;;;2.92;;
64986;SDS011;67903;52.108;9.358;2024-02-26T03:25:05;3.38;;;2.85;;
64986;SDS011;67903;52.108;9.358;2024-02-26T03:27:51;3.13;;;2.83;;
64986;SDS011;67903;52.108;9.358;2024-02-26T03:30:36;3.08;;;2.70;;
64986;SDS011;67903;52.108;9.358;2024-02-26T03:33:22;4.50;;;3.13;;
64986;SDS011;67903;52.108;9.358;2024-02-26T03:36:07;3.83;;;2.67;;
64986;SDS011;67903;52.108;9.358;2024-02-26T03:38:53;3.67;;;2.90;;
64986;SDS011;67903;52.108;9.358;2024-02-26T03:41:38;3.05;;;2.63;;
64986;SDS011;67903;52.108;9.358;2024-02-26T03:44:24;2.60;;;2.40;;
64986;SDS011;67903;52.108;9.358;2024-02-26T03:47:09;2.80;;;2.47;;
64986;SDS011;67903;52.108;9.358;2024-02-26T03:49:55;3.05;;;2.80;;
64986;SDS011;67903;52.108;9.358;2024-02-26T03:52:41;2.83;;;2.63;;
64986;SDS011;67903;52.108;9.358;2024-02-26T03:55:26;2.92;;;2.70;;
64986;SDS011;67903;52.108;9.358;2024-02-26T03:58:12;2.55;;;2.33;;
64986;SDS011;67903;52.108;9.358;2024-02-26T04:00:58;3.20;;;2.80;;
64986;SDS011;67903;52.108;9.358;2024-02-26T04:03:45;2.90;;;2.70;;
64986;SDS011;67903;52.108;9.358;2024-02-26T04:06:30;3.53;;;2.42;;
64986;SDS011;67903;52.108;9.358;2024-02-26T04:09:16;2.33;;;2.13;;
64986;SDS011;67903;52.108;9.358;2024-02-26T04:12:02;2.38;;;2.17;;
64986;SDS011;67903;52.108;9.358;2024-02-26T04:14:47;3.17;;;2.42;;
64986;SDS011;67903;52.108;9.358;2024-02-26T04:17:34;3.65;;;2.47;;
64986;SDS011;67903;52.108;9.358;2024-02-26T04:20:20;2.75;;;2.30;;
64986;SDS011;67903;52.108;9.358;2024-02-26T04:23:05;2.53;;;2.33;;
64986;SDS011;67903;52.108;9.358;2024-02-26T04:25:51;3.80;;;2.53;;
64986;SDS011;67903;52.108;9.358;2024-02-26T04:28:38;2.70;;;2.47;;
64986;SDS011;67903;52.108;9.358;2024-02-26T04:31:23;3.00;;;2.30;;
64986;SDS011;67903;52.108;9.358;2024-02-26T04:34:09;2.25;;;2.10;;
64986;SDS011;67903;52.108;9.358;2024-02-26T04:36:58;2.92;;;2.65;;
64986;SDS011;67903;52.108;9.358;2024-02-26T04:39:43;3.03;;;2.58;;
64986;SDS011;67903;52.108;9.358;2024-02-26T04:42:31;5.43;;;2.38;;
64986;SDS011;67903;52.108;9.358;2024-02-26T04:45:16;2.53;;;2.33;;
64986;SDS011;67903;52.108;9.358;2024-02-26T04:48:03;2.50;;;2.30;;
64986;SDS011;67903;52.108;9.358;2024-02-26T04:50:49;2.38;;;2.17;;
64986;SDS011;67903;52.108;9.358;2024-02-26T04:53:34;3.30;;;2.60;;
64986;SDS011;67903;52.108;9.358;2024-02-26T04:56:20;3.03;;;2.65;;
64986;SDS011;67903;52.108;9.358;2024-02-26T04:59:07;2.83;;;2.53;;
64986;SDS011;67903;52.108;9.358;2024-02-26T05:01:52;3.10;;;2.50;;
64986;SDS011;67903;52.108;9.358;2024-02-26T05:04:37;7.05;;;2.40;;
64986;SDS011;67903;52.108;9.358;2024-02-26T05:07:23;2.50;;;2.30;;
64986;SDS011;67903;52.108;9.358;2024-02-26T05:10:09;2.70;;;2.50;;
64986;SDS011;67903;52.108;9.358;2024-02-26T05:12:54;4.88;;;2.25;;
64986;SDS011;67903;52.108;9.358;2024-02-26T05:15:40;3.47;;;2.50;;
64986;SDS011;67903;52.108;9.358;2024-02-26T05:18:26;3.70;;;2.53;;
64986;SDS011;67903;52.108;9.358;2024-02-26T05:21:12;3.45;;;2.35;;
64986;SDS011;67903;52.108;9.358;2024-02-26T05:23:57;2.67;;;2.42;;
64986;SDS011;67903;52.108;9.358;2024-02-26T05:26:43;2.47;;;2.25;;
64986;SDS011;67903;52.108;9.358;2024-02-26T05:29:29;3.00;;;1.90;;
64986;SDS011;67903;52.108;9.358;2024-02-26T05:32:15;2.65;;;2.20;;
64986;SDS011;67903;52.108;9.358;2024-02-26T05:35:01;2.67;;;2.47;;
64986;SDS011;67903;52.108;9.358;2024-02-26T05:37:48;3.20;;;2.90;;
64986;SDS011;67903;52.108;9.358;2024-02-26T05:40:34;3.45;;;2.30;;
64986;SDS011;67903;52.108;9.358;2024-02-26T05:43:19;3.42;;;3.00;;
64986;SDS011;67903;52.108;9.358;2024-02-26T05:46:05;3.08;;;2.75;;
64986;SDS011;67903;52.108;9.358;2024-02-26T05:48:51;5.25;;;2.95;;
64986;SDS011;67903;52.108;9.358;2024-02-26T05:51:37;3.28;;;2.97;;
64986;SDS011;67903;52.108;9.358;2024-02-26T05:54:23;4.47;;;3.05;;
64986;SDS011;67903;52.108;9.358;2024-02-26T05:57:08;3.05;;;2.75;;
64986;SDS011;67903;52.108;9.358;2024-02-26T05:59:54;3.63;;;3.03;;
64986;SDS011;67903;52.108;9.358;2024-02-26T06:02:39;3.78;;;2.95;;
64986;SDS011;67903;52.108;9.358;2024-02-26T06:05:25;3.88;;;2.85;;
64986;SDS011;67903;52.108;9.358;2024-02-26T06:08:11;4.28;;;3.60;;
64986;SDS011;67903;52.108;9.358;2024-02-26T06:10:56;7.07;;;4.28;;
64986;SDS011;67903;52.108;9.358;2024-02-26T06:13:42;4.47;;;4.07;;
64986;SDS011;67903;52.108;9.358;2024-02-26T06:16:27;4.55;;;4.10;;
64986;SDS011;67903;52.108;9.358;2024-02-26T06:19:13;4.55;;;4.15;;
64986;SDS011;67903;52.108;9.358;2024-02-26T06:21:58;6.13;;;4.47;;
64986;SDS011;67903;52.108;9.358;2024-02-26T06:24:44;8.27;;;5.57;;
64986;SDS011;67903;52.108;9.358;2024-02-26T06:27:30;8.35;;;4.68;;
64986;SDS011;67903;52.108;9.358;2024-02-26T06:30:15;7.10;;;5.13;;
64986;SDS011;67903;52.108;9.358;2024-02-26T06:33:01;5.80;;;5.20;;
64986;SDS011;67903;52.108;9.358;2024-02-26T06:35:46;5.70;;;5.10;;
64986;SDS011;67903;52.108;9.358;2024-02-26T06:38:32;7.10;;;5.70;;
64986;SDS011;67903;52.108;9.358;2024-02-26T06:41:17;5.53;;;5.03;;
64986;SDS011;67903;52.108;9.358;2024-02-26T06:44:03;6.78;;;5.82;;
64986;SDS011;67903;52.108;9.358;2024-02-26T06:46:49;5.93;;;5.22;;
64986;SDS011;67903;52.108;9.358;2024-02-26T06:49:34;7.55;;;5.28;;
64986;SDS011;67903;52.108;9.358;2024-02-26T06:52:20;5.45;;;4.95;;
64986;SDS011;67903;52.108;9.358;2024-02-26T06:55:05;6.40;;;5.70;;
64986;SDS011;67903;52.108;9.358;2024-02-26T06:57:53;5.78;;;5.13;;
64986;SDS011;67903;52.108;9.358;2024-02-26T07:00:38;7.07;;;5.90;;
64986;SDS011;67903;52.108;9.358;2024-02-26T07:03:24;6.65;;;5.60;;
64986;SDS011;67903;52.108;9.358;2024-02-26T07:06:10;6.65;;;5.95;;
64986;SDS011;67903;52.108;9.358;2024-02-26T07:08:57;6.38;;;5.45;;
64986;SDS011;67903;52.108;9.358;2024-02-26T07:11:43;6.45;;;5.75;;
64986;SDS011;67903;52.108;9.358;2024-02-26T07:14:28;6.20;;;5.57;;
64986;SDS011;67903;52.108;9.358;2024-02-26T07:17:14;5.90;;;5.30;;
64986;SDS011;67903;52.108;9.358;2024-02-26T07:20:01;7.70;;;5.80;;
64986;SDS011;67903;52.108;9.358;2024-02-26T07:22:53;8.23;;;5.97;;
64986;SDS011;67903;52.108;9.358;2024-02-26T07:25:39;6.75;;;5.35;;
64986;SDS011;67903;52.108;9.358;2024-02-26T07:28:24;6.15;;;5.30;;
64986;SDS011;67903;52.108;9.358;2024-02-26T07:31:10;6.65;;;5.95;;
64986;SDS011;67903;52.108;9.358;2024-02-26T07:33:55;7.72;;;5.93;;
64986;SDS011;67903;52.108;9.358;2024-02-26T07:36:41;7.55;;;5.55;;
64986;SDS011;67903;52.108;9.358;2024-02-26T07:39:26;7.38;;;6.32;;
64986;SDS011;67903;52.108;9.358;2024-02-26T07:42:12;6.78;;;5.90;;
64986;SDS011;67903;52.108;9.358;2024-02-26T07:44:57;7.72;;;6.10;;
64986;SDS011;67903;52.108;9.358;2024-02-26T07:47:43;7.50;;;6.20;;
64986;SDS011;67903;52.108;9.358;2024-02-26T07:50:28;7.40;;;6.03;;
64986;SDS011;67903;52.108;9.358;2024-02-26T07:53:14;6.53;;;5.35;;
64986;SDS011;67903;52.108;9.358;2024-02-26T07:55:59;6.70;;;5.50;;
64986;SDS011;67903;52.108;9.358;2024-02-26T07:58:45;7.15;;;5.68;;
64986;SDS011;67903;52.108;9.358;2024-02-26T08:01:30;6.40;;;5.40;;
64986;SDS011;67903;52.108;9.358;2024-02-26T08:04:16;5.63;;;5.05;;
64986;SDS011;67903;52.108;9.358;2024-02-26T08:07:02;6.85;;;5.32;;
64986;SDS011;67903;52.108;9.358;2024-02-26T08:09:48;5.80;;;5.20;;
64986;SDS011;67903;52.108;9.358;2024-02-26T08:12:33;5.38;;;4.78;;
64986;SDS011;67903;52.108;9.358;2024-02-26T08:15:19;5.90;;;5.30;;
64986;SDS011;67903;52.108;9.358;2024-02-26T08:18:04;7.07;;;5.35;;
64986;SDS011;67903;52.108;9.358;2024-02-26T08:20:50;5.85;;;5.07;;
64986;SDS011;67903;52.108;9.358;2024-02-26T08:23:36;7.97;;;4.97;;
64986;SDS011;67903;52.108;9.358;2024-02-26T08:26:22;7.85;;;5.63;;
64986;SDS011;67903;52.108;9.358;2024-02-26T08:29:09;7.03;;;5.22;;
64986;SDS011;67903;52.108;9.358;2024-02-26T08:31:54;6.03;;;5.10;;
64986;SDS011;67903;52.108;9.358;2024-02-26T08:34:40;5.72;;;4.88;;
64986;SDS011;67903;52.108;9.358;2024-02-26T08:37:25;6.35;;;4.75;;
64986;SDS011;67903;52.108;9.358;2024-02-26T08:40:11;6.57;;;4.85;;
64986;SDS011;67903;52.108;9.358;2024-02-26T08:42:56;6.55;;;4.78;;
64986;SDS011;67903;52.108;9.358;2024-02-26T08:45:42;8.20;;;5.75;;
64986;SDS011;67903;52.108;9.358;2024-02-26T08:48:28;5.57;;;4.85;;
64986;SDS011;67903;52.108;9.358;2024-02-26T08:51:13;5.50;;;4.75;;
64986;SDS011;67903;52.108;9.358;2024-02-26T08:53:59;5.50;;;4.80;;
64986;SDS011;67903;52.108;9.358;2024-02-26T08:56:44;5.68;;;4.45;;
64986;SDS011;67903;52.108;9.358;2024-02-26T08:59:30;6.90;;;5.25;;
64986;SDS011;67903;52.108;9.358;2024-02-26T09:02:15;5.88;;;4.40;;
64986;SDS011;67903;52.108;9.358;2024-02-26T09:05:01;5.80;;;5.20;;
64986;SDS011;67903;52.108;9.358;2024-02-26T09:07:47;6.13;;;4.13;;
64986;SDS011;67903;52.108;9.358;2024-02-26T09:10:32;5.63;;;4.53;;
64986;SDS011;67903;52.108;9.358;2024-02-26T09:13:18;5.72;;;4.85;;
64986;SDS011;67903;52.108;9.358;2024-02-26T09:16:03;5.20;;;3.97;;
64986;SDS011;67903;52.108;9.358;2024-02-26T09:18:49;6.10;;;4.57;;
64986;SDS011;67903;52.108;9.358;2024-02-26T09:21:34;5.70;;;4.28;;
64986;SDS011;67903;52.108;9.358;2024-02-26T09:24:20;4.60;;;4.20;;
64986;SDS011;67903;52.108;9.358;2024-02-26T09:27:05;5.00;;;4.50;;
64986;SDS011;67903;52.108;9.358;2024-02-26T09:29:51;5.28;;;4.35;;
64986;SDS011;67903;52.108;9.358;2024-02-26T09:32:36;5.65;;;4.20;;
64986;SDS011;67903;52.108;9.358;2024-02-26T09:35:23;6.43;;;4.22;;
64986;SDS011;67903;52.108;9.358;2024-02-26T09:38:08;5.72;;;4.75;;
64986;SDS011;67903;52.108;9.358;2024-02-26T09:40:54;6.13;;;5.05;;
64986;SDS011;67903;52.108;9.358;2024-02-26T09:43:40;6.55;;;5.13;;
64986;SDS011;67903;52.108;9.358;2024-02-26T09:46:29;4.75;;;4.22;;
64986;SDS011;67903;52.108;9.358;2024-02-26T09:49:15;9.55;;;6.50;;
64986;SDS011;67903;52.108;9.358;2024-02-26T09:52:01;6.45;;;5.10;;
64986;SDS011;67903;52.108;9.358;2024-02-26T09:54:49;7.30;;;5.78;;
64986;SDS011;67903;52.108;9.358;2024-02-26T09:57:36;8.05;;;6.43;;
64986;SDS011;67903;52.108;9.358;2024-02-26T10:00:22;9.82;;;6.22;;
64986;SDS011;67903;52.108;9.358;2024-02-26T10:03:11;7.50;;;5.45;;
64986;SDS011;67903;52.108;9.358;2024-02-26T10:06:01;5.43;;;4.72;;
64986;SDS011;67903;52.108;9.358;2024-02-26T10:08:49;6.15;;;4.60;;
64986;SDS011;67903;52.108;9.358;2024-02-26T10:11:34;4.78;;;4.28;;
64986;SDS011;67903;52.108;9.358;2024-02-26T10:14:21;5.00;;;4.07;;
64986;SDS011;67903;52.108;9.358;2024-02-26T10:17:07;6.10;;;4.50;;
64986;SDS011;67903;52.108;9.358;2024-02-26T10:19:54;6.55;;;4.43;;
64986;SDS011;67903;52.108;9.358;2024-02-26T10:22:41;5.13;;;4.63;;
64986;SDS011;67903;52.108;9.358;2024-02-26T10:25:27;5.22;;;4.45;;
64986;SDS011;67903;52.108;9.358;2024-02-26T10:28:13;5.30;;;4.20;;
64986;SDS011;67903;52.108;9.358;2024-02-26T10:30:59;5.32;;;4.00;;
64986;SDS011;67903;52.108;9.358;2024-02-26T10:33:45;4.57;;;3.90;;
64986;SDS011;67903;52.108;9.358;2024-02-26T10:36:33;4.80;;;4.30;;
64986;SDS011;67903;52.108;9.358;2024-02-26T10:39:32;6.25;;;3.92;;
64986;SDS011;67903;52.108;9.358;2024-02-26T10:42:18;4.43;;;4.03;;
64986;SDS011;67903;52.108;9.358;2024-02-26T10:45:05;4.72;;;4.20;;
64986;SDS011;67903;52.108;9.358;2024-02-26T10:47:51;4.88;;;3.90;;
64986;SDS011;67903;52.108;9.358;2024-02-26T10:50:36;5.25;;;4.10;;
64986;SDS011;67903;52.108;9.358;2024-02-26T10:53:23;4.18;;;3.78;;
64986;SDS011;67903;52.108;9.358;2024-02-26T10:56:14;5.13;;;4.15;;
64986;SDS011;67903;52.108;9.358;2024-02-26T10:59:02;4.47;;;3.83;;
64986;SDS011;67903;52.108;9.358;2024-02-26T11:01:50;4.20;;;3.60;;
64986;SDS011;67903;52.108;9.358;2024-02-26T11:04:36;6.20;;;3.90;;
64986;SDS011;67903;52.108;9.358;2024-02-26T11:07:23;3.80;;;3.20;;
64986;SDS011;67903;52.108;9.358;2024-02-26T11:10:10;3.88;;;3.47;;
64986;SDS011;67903;52.108;9.358;2024-02-26T11:12:57;4.18;;;3.30;;
64986;SDS011;67903;52.108;9.358;2024-02-26T11:15:46;3.97;;;3.25;;
64986;SDS011;67903;52.108;9.358;2024-02-26T11:18:33;4.50;;;4.10;;
64986;SDS011;67903;52.108;9.358;2024-02-26T11:21:20;5.07;;;3.60;;
64986;SDS011;67903;52.108;9.358;2024-02-26T11:24:23;4.05;;;3.25;;
64986;SDS011;67903;52.108;9.358;2024-02-26T11:27:09;4.05;;;3.65;;
64986;SDS011;67903;52.108;9.358;2024-02-26T11:29:56;4.57;;;3.50;;
64986;SDS011;67903;52.108;9.358;2024-02-26T11:32:45;3.58;;;3.20;;
64986;SDS011;67903;52.108;9.358;2024-02-26T11:35:32;3.60;;;3.30;;
64986;SDS011;67903;52.108;9.358;2024-02-26T11:38:22;4.75;;;3.47;;
64986;SDS011;67903;52.108;9.358;2024-02-26T11:41:10;5.18;;;3.28;;
64986;SDS011;67903;52.108;9.358;2024-02-26T11:44:00;3.60;;;3.00;;
64986;SDS011;67903;52.108;9.358;2024-02-26T11:46:47;3.53;;;3.17;;
64986;SDS011;67903;52.108;9.358;2024-02-26T11:49:33;3.58;;;2.88;;
64986;SDS011;67903;52.108;9.358;2024-02-26T11:52:20;2.95;;;2.75;;
64986;SDS011;67903;52.108;9.358;2024-02-26T11:55:06;4.05;;;3.03;;
64986;SDS011;67903;52.108;9.358;2024-02-26T11:57:54;3.20;;;2.63;;
64986;SDS011;67903;52.108;9.358;2024-02-26T12:00:40;3.20;;;2.67;;
64986;SDS011;67903;52.108;9.358;2024-02-26T12:03:26;3.53;;;2.53;;
64986;SDS011;67903;52.108;9.358;2024-02-26T12:06:12;3.65;;;2.45;;
64986;SDS011;67903;52.108;9.358;2024-02-26T12:08:57;2.80;;;2.50;;
64986;SDS011;67903;52.108;9.358;2024-02-26T12:11:43;3.03;;;2.28;;
64986;SDS011;67903;52.108;9.358;2024-02-26T12:14:28;2.80;;;2.60;;
64986;SDS011;67903;52.108;9.358;2024-02-26T12:17:18;2.75;;;2.55;;
64986;SDS011;67903;52.108;9.358;2024-02-26T12:20:09;3.90;;;2.75;;
64986;SDS011;67903;52.108;9.358;2024-02-26T12:22:56;3.00;;;2.67;;
64986;SDS011;67903;52.108;9.358;2024-02-26T12:25:41;3.63;;;2.72;;
64986;SDS011;67903;52.108;9.358;2024-02-26T12:28:29;2.72;;;2.53;;
64986;SDS011;67903;52.108;9.358;2024-02-26T12:31:14;4.05;;;2.65;;
64986;SDS011;67903;52.108;9.358;2024-02-26T12:34:00;3.55;;;3.20;;
64986;SDS011;67903;52.108;9.358;2024-02-26T12:36:46;3.10;;;2.80;;
64986;SDS011;67903;52.108;9.358;2024-02-26T12:39:32;3.63;;;2.85;;
64986;SDS011;67903;52.108;9.358;2024-02-26T12:42:17;3.50;;;2.70;;
64986;SDS011;67903;52.108;9.358;2024-02-26T12:45:03;4.10;;;2.58;;
64986;SDS011;67903;52.108;9.358;2024-02-26T12:47:53;4.20;;;3.05;;
64986;SDS011;67903;52.108;9.358;2024-02-26T12:50:39;4.50;;;3.47;;
64986;SDS011;67903;52.108;9.358;2024-02-26T12:53:24;3.38;;;2.80;;
64986;SDS011;67903;52.108;9.358;2024-02-26T12:56:12;3.60;;;3.20;;
64986;SDS011;67903;52.108;9.358;2024-02-26T12:58:58;3.85;;;3.20;;
64986;SDS011;67903;52.108;9.358;2024-02-26T13:01:44;5.82;;;5.30;;
64986;SDS011;67903;52.108;9.358;2024-02-26T13:04:31;4.13;;;3.47;;
64986;SDS011;67903;52.108;9.358;2024-02-26T13:07:17;8.63;;;3.17;;
64986;SDS011;67903;52.108;9.358;2024-02-26T13:10:02;4.20;;;3.40;;
64986;SDS011;67903;52.108;9.358;2024-02-26T13:12:49;4.18;;;3.78;;
64986;SDS011;67903;52.108;9.358;2024-02-26T13:15:38;5.20;;;4.10;;
64986;SDS011;67903;52.108;9.358;2024-02-26T13:18:27;4.60;;;3.90;;
64986;SDS011;67903;52.108;9.358;2024-02-26T13:21:15;6.22;;;4.03;;
64986;SDS011;67903;52.108;9.358;2024-02-26T13:24:03;4.20;;;3.22;;
64986;SDS011;67903;52.108;9.358;2024-02-26T13:26:54;6.18;;;3.60;;
64986;SDS011;67903;52.108;9.358;2024-02-26T13:29:40;6.03;;;3.65;;
64986;SDS011;67903;52.108;9.358;2024-02-26T13:32:26;4.82;;;3.83;;
64986;SDS011;67903;52.108;9.358;2024-02-26T13:35:16;5.43;;;4.05;;
64986;SDS011;67903;52.108;9.358;2024-02-26T13:38:02;5.88;;;4.18;;
64986;SDS011;67903;52.108;9.358;2024-02-26T13:40:48;4.30;;;3.90;;
64986;SDS011;67903;52.108;9.358;2024-02-26T13:43:35;5.13;;;3.72;;
64986;SDS011;67903;52.108;9.358;2024-02-26T13:46:20;4.72;;;3.63;;
64986;SDS011;67903;52.108;9.358;2024-02-26T13:49:08;5.05;;;4.00;;
64986;SDS011;67903;52.108;9.358;2024-02-26T13:51:54;6.15;;;4.15;;
64986;SDS011;67903;52.108;9.358;2024-02-26T13:54:39;5.78;;;4.47;;
64986;SDS011;67903;52.108;9.358;2024-02-26T13:57:26;4.65;;;4.15;;
64986;SDS011;67903;52.108;9.358;2024-02-26T14:00:12;5.07;;;4.20;;
64986;SDS011;67903;52.108;9.358;2024-02-26T14:02:58;5.07;;;4.55;;
64986;SDS011;67903;52.108;9.358;2024-02-26T14:05:45;5.63;;;4.57;;
64986;SDS011;67903;52.108;9.358;2024-02-26T14:08:32;4.65;;;4.15;;
64986;SDS011;67903;52.108;9.358;2024-02-26T14:11:18;4.72;;;4.10;;
64986;SDS011;67903;52.108;9.358;2024-02-26T14:14:04;5.45;;;4.78;;
64986;SDS011;67903;52.108;9.358;2024-02-26T14:16:49;5.45;;;4.70;;
64986;SDS011;67903;52.108;9.358;2024-02-26T14:19:34;5.65;;;4.65;;
64986;SDS011;67903;52.108;9.358;2024-02-26T14:22:20;4.95;;;4.50;;
64986;SDS011;67903;52.108;9.358;2024-02-26T14:25:06;5.70;;;4.70;;
64986;SDS011;67903;52.108;9.358;2024-02-26T14:27:54;5.72;;;4.57;;
64986;SDS011;67903;52.108;9.358;2024-02-26T14:30:39;5.63;;;4.72;;
64986;SDS011;67903;52.108;9.358;2024-02-26T14:33:25;6.22;;;5.63;;
64986;SDS011;67903;52.108;9.358;2024-02-26T14:36:11;5.72;;;4.85;;
64986;SDS011;67903;52.108;9.358;2024-02-26T14:38:57;5.25;;;4.47;;
64986;SDS011;67903;52.108;9.358;2024-02-26T14:41:42;4.82;;;4.10;;
64986;SDS011;67903;52.108;9.358;2024-02-26T14:44:28;5.68;;;4.53;;
64986;SDS011;67903;52.108;9.358;2024-02-26T14:47:13;4.93;;;4.30;;
64986;SDS011;67903;52.108;9.358;2024-02-26T14:49:59;6.13;;;4.63;;
64986;SDS011;67903;52.108;9.358;2024-02-26T14:52:45;5.15;;;4.07;;
64986;SDS011;67903;52.108;9.358;2024-02-26T14:55:31;4.65;;;4.20;;
64986;SDS011;67903;52.108;9.358;2024-02-26T14:58:17;5.30;;;4.80;;
64986;SDS011;67903;52.108;9.358;2024-02-26T15:01:03;4.93;;;4.30;;
64986;SDS011;67903;52.108;9.358;2024-02-26T15:03:48;5.18;;;4.22;;
64986;SDS011;67903;52.108;9.358;2024-02-26T15:06:34;5.45;;;4.20;;
64986;SDS011;67903;52.108;9.358;2024-02-26T15:09:20;3.88;;;3.58;;
64986;SDS011;67903;52.108;9.358;2024-02-26T15:12:06;4.50;;;4.10;;
64986;SDS011;67903;52.108;9.358;2024-02-26T15:14:52;4.55;;;4.13;;
64986;SDS011;67903;52.108;9.358;2024-02-26T15:17:37;4.38;;;3.97;;
64986;SDS011;67903;52.108;9.358;2024-02-26T15:20:23;6.85;;;5.68;;
64986;SDS011;67903;52.108;9.358;2024-02-26T15:23:08;6.00;;;4.43;;
64986;SDS011;67903;52.108;9.358;2024-02-26T15:25:54;4.70;;;4.10;;
64986;SDS011;67903;52.108;9.358;2024-02-26T15:28:40;4.32;;;3.47;;
64986;SDS011;67903;52.108;9.358;2024-02-26T15:31:25;4.50;;;3.92;;
64986;SDS011;67903;52.108;9.358;2024-02-26T15:34:11;5.75;;;4.40;;
64986;SDS011;67903;52.108;9.358;2024-02-26T15:36:57;4.47;;;3.72;;
64986;SDS011;67903;52.108;9.358;2024-02-26T15:39:43;4.13;;;3.72;;
64986;SDS011;67903;52.108;9.358;2024-02-26T15:42:30;3.92;;;3.28;;
64986;SDS011;67903;52.108;9.358;2024-02-26T15:45:16;5.80;;;4.47;;
64986;SDS011;67903;52.108;9.358;2024-02-26T15:48:01;5.38;;;3.42;;
64986;SDS011;67903;52.108;9.358;2024-02-26T15:50:47;5.75;;;3.67;;
64986;SDS011;67903;52.108;9.358;2024-02-26T15:53:33;4.53;;;3.38;;
64986;SDS011;67903;52.108;9.358;2024-02-26T15:56:19;5.25;;;4.13;;
64986;SDS011;67903;52.108;9.358;2024-02-26T15:59:09;4.18;;;3.60;;
64986;SDS011;67903;52.108;9.358;2024-02-26T16:01:55;4.30;;;3.65;;
64986;SDS011;67903;52.108;9.358;2024-02-26T16:04:41;6.38;;;4.50;;
64986;SDS011;67903;52.108;9.358;2024-02-26T16:07:31;6.22;;;3.95;;
64986;SDS011;67903;52.108;9.358;2024-02-26T16:10:23;4.68;;;4.18;;
64986;SDS011;67903;52.108;9.358;2024-02-26T16:13:12;5.45;;;4.15;;
64986;SDS011;67903;52.108;9.358;2024-02-26T16:16:01;4.22;;;3.83;;
64986;SDS011;67903;52.108;9.358;2024-02-26T16:18:49;3.80;;;3.38;;
64986;SDS011;67903;52.108;9.358;2024-02-26T16:21:34;4.70;;;3.40;;
64986;SDS011;67903;52.108;9.358;2024-02-26T16:24:20;12.25;;;11.23;;
64986;SDS011;67903;52.108;9.358;2024-02-26T16:27:07;5.25;;;4.65;;
64986;SDS011;67903;52.108;9.358;2024-02-26T16:29:52;5.50;;;3.97;;
64986;SDS011;67903;52.108;9.358;2024-02-26T16:32:38;6.38;;;5.05;;
64986;SDS011;67903;52.108;9.358;2024-02-26T16:35:24;4.65;;;4.20;;
64986;SDS011;67903;52.108;9.358;2024-02-26T16:38:10;5.38;;;4.15;;
64986;SDS011;67903;52.108;9.358;2024-02-26T16:40:55;5.47;;;4.20;;